Time;durP1;ratioP1;P1;durP2;ratioP2;P2;SDS_P1;SDS_P2;PMS_P1;PMS_P2;Temp;Humidity;BMP_temperature;BMP_pressure;BME280_temperature;BME280_humidity;BME280_pressure;Samples;Min_cycle;Max_cycle;Signal;HPM_P1;HPM_P2
2022/04/07 00:01:15;;;;;;;2.33;1.08;;;27.70;62.10;;;;;;5044540;23;20275;-44
2022/04/07 00:03:17;;;;;;;2.38;1.10;;;27.60;62.40;;;;;;5040068;23;20021;-43
2022/04/07 00:05:19;;;;;;;3.30;1.43;;;27.50;62.10;;;;;;5023775;23;20268;-44
2022/04/07 00:07:22;;;;;;;2.63;0.95;;;27.40;62.70;;;;;;5045297;23;20045;-43
2022/04/07 00:09:24;;;;;;;1.17;0.40;;;27.30;62.90;;;;;;5043377;23;20205;-44
2022/04/07 00:11:26;;;;;;;1.50;0.68;;;27.20;63.00;;;;;;5042676;23;20596;-41
2022/04/07 00:13:28;;;;;;;2.80;0.85;;;27.10;63.00;;;;;;5048870;23;20029;-39
2022/04/07 00:15:31;;;;;;;2.23;0.80;;;27.00;63.20;;;;;;5042157;23;20535;-45
2022/04/07 00:17:33;;;;;;;;;;;27.00;63.30;;;;;;5043892;23;20028;-44
2022/04/07 00:19:35;;;;;;;1.38;0.60;;;26.90;63.50;;;;;;5022492;23;20072;-42
2022/04/07 00:21:38;;;;;;;1.85;0.80;;;26.80;63.50;;;;;;5045588;23;20029;-46
2022/04/07 00:23:41;;;;;;;3.28;0.98;;;26.70;63.50;;;;;;5044277;23;20029;-43
2022/04/07 00:25:43;;;;;;;1.40;0.57;;;26.70;63.80;;;;;;5045277;23;20165;-42
2022/04/07 00:27:46;;;;;;;2.13;0.55;;;26.60;63.90;;;;;;5049493;23;20025;-40
2022/04/07 00:29:48;;;;;;;2.20;0.80;;;26.60;64.00;;;;;;5044255;23;20644;-41
2022/04/07 00:31:57;;;;;;;1.80;0.80;;;26.50;64.10;;;;;;5043364;23;20065;-42
2022/04/07 00:33:59;;;;;;;2.33;0.82;;;26.50;64.20;;;;;;5044996;23;20088;-43
2022/04/07 00:36:04;;;;;;;3.00;0.70;;;26.40;64.30;;;;;;5051009;23;20033;-42
2022/04/07 00:38:06;;;;;;;1.23;0.50;;;26.40;64.50;;;;;;5046120;23;20895;-41
2022/04/07 00:40:10;;;;;;;0.83;0.50;;;26.30;64.50;;;;;;5043322;23;20033;-42
2022/04/07 00:42:12;;;;;;;1.45;0.90;;;26.20;64.60;;;;;;5046939;23;20511;-41
2022/04/07 00:44:14;;;;;;;1.83;0.60;;;26.20;64.70;;;;;;5048518;23;20549;-44
2022/04/07 00:46:16;;;;;;;1.45;0.60;;;26.10;64.80;;;;;;5017151;23;20690;-42
2022/04/07 00:48:18;;;;;;;1.33;0.80;;;26.10;64.90;;;;;;5015253;23;20705;-44
2022/04/07 00:50:21;;;;;;;1.15;0.50;;;26.00;65.00;;;;;;5048048;23;20431;-41
2022/04/07 00:52:23;;;;;;;1.33;0.70;;;26.00;65.10;;;;;;5042413;23;21044;-43
2022/04/07 00:54:26;;;;;;;1.45;0.63;;;25.90;65.20;;;;;;5018300;23;20105;-43
2022/04/07 00:56:29;;;;;;;1.25;0.70;;;25.90;65.30;;;;;;5042902;23;20033;-43
2022/04/07 00:58:33;;;;;;;3.83;0.73;;;25.80;66.00;;;;;;5048336;23;20640;-41
2022/04/07 01:00:35;;;;;;;2.85;0.90;;;25.80;65.50;;;;;;5044430;23;20401;-40
2022/04/07 01:02:38;;;;;;;2.38;0.80;;;25.70;65.50;;;;;;5040962;23;20068;-46
2022/04/07 01:04:41;;;;;;;2.70;0.73;;;25.70;65.70;;;;;;5050908;23;20511;-42
2022/04/07 01:06:44;;;;;;;1.27;0.60;;;25.70;65.80;;;;;;5045766;23;20116;-45
2022/04/07 01:08:46;;;;;;;2.80;0.70;;;25.60;65.80;;;;;;5050112;23;20048;-40
2022/04/07 01:10:49;;;;;;;1.37;0.53;;;25.60;65.90;;;;;;5046336;23;20136;-40
2022/04/07 01:12:51;;;;;;;2.97;0.75;;;25.50;65.90;;;;;;5025302;23;20018;-42
2022/04/07 01:14:55;;;;;;;0.73;0.60;;;25.50;66.00;;;;;;5048450;23;20923;-43
2022/04/07 01:16:58;;;;;;;4.32;0.68;;;25.50;66.10;;;;;;5048473;23;20036;-43
2022/04/07 01:19:00;;;;;;;0.85;0.40;;;25.40;66.20;;;;;;5025559;23;20030;-47
2022/04/07 01:21:02;;;;;;;1.15;0.52;;;25.40;66.20;;;;;;5055278;23;20029;-42
2022/04/07 01:23:07;;;;;;;1.25;0.38;;;25.40;66.30;;;;;;5048844;23;20037;-39
2022/04/07 01:25:10;;;;;;;2.20;0.73;;;25.40;66.40;;;;;;5023304;23;20531;-41
2022/04/07 01:27:13;;;;;;;0.87;0.50;;;25.30;66.40;;;;;;5046568;23;20040;-43
2022/04/07 01:29:19;;;;;;;2.33;0.50;;;25.20;66.50;;;;;;5026220;23;20029;-39
2022/04/07 01:31:21;;;;;;;2.00;0.65;;;25.20;66.70;;;;;;5049660;23;20086;-40
2022/04/07 01:33:24;;;;;;;1.95;0.55;;;25.20;66.70;;;;;;5051588;23;20064;-41
2022/04/07 01:35:27;;;;;;;2.38;0.52;;;25.20;66.80;;;;;;5052486;23;20148;-40
2022/04/07 01:37:29;;;;;;;4.97;1.00;;;25.10;66.80;;;;;;5053719;23;20064;-39
2022/04/07 01:39:31;;;;;;;1.90;0.70;;;25.10;66.90;;;;;;5041492;23;20076;-38
2022/04/07 01:41:34;;;;;;;1.75;0.70;;;25.10;67.00;;;;;;5039549;23;20903;-39
2022/04/07 01:43:39;;;;;;;1.48;0.73;;;25.10;67.10;;;;;;5043442;23;20034;-40
2022/04/07 01:45:42;;;;;;;0.95;0.55;;;25.00;67.10;;;;;;5042965;23;20810;-41
2022/04/07 01:47:45;;;;;;;1.00;0.50;;;25.00;67.20;;;;;;5037611;23;20488;-40
2022/04/07 01:49:55;;;;;;;0.93;0.50;;;25.00;67.20;;;;;;5037071;23;20031;-39
2022/04/07 01:52:02;;;;;;;1.13;0.60;;;24.90;67.30;;;;;;5037360;23;20025;-39
2022/04/07 01:54:11;;;;;;;1.05;0.50;;;24.90;67.40;;;;;;5039583;23;20034;-42
2022/04/07 01:56:14;;;;;;;3.15;0.85;;;24.90;67.50;;;;;;5043287;23;20508;-41
2022/04/07 01:58:18;;;;;;;1.85;0.70;;;24.80;67.40;;;;;;5038710;23;20060;-39
2022/04/07 02:00:20;;;;;;;2.08;0.60;;;24.80;67.40;;;;;;5007967;23;20117;-40
2022/04/07 02:02:23;;;;;;;2.90;0.70;;;24.80;67.60;;;;;;5013263;23;20061;-42
2022/04/07 02:04:25;;;;;;;1.52;0.50;;;24.80;67.60;;;;;;5046807;23;20033;-41
2022/04/07 02:06:27;;;;;;;2.72;1.15;;;24.80;67.70;;;;;;5012471;23;20050;-41
2022/04/07 02:08:29;;;;;;;1.75;0.70;;;24.70;67.70;;;;;;5038536;23;20037;-40
2022/04/07 02:10:33;;;;;;;0.65;0.32;;;24.70;67.80;;;;;;5017250;23;20041;-41
2022/04/07 02:12:37;;;;;;;1.33;0.75;;;24.70;67.90;;;;;;5045283;23;20025;-43
2022/04/07 02:14:39;;;;;;;1.60;0.50;;;24.70;68.00;;;;;;5040761;23;20025;-40
2022/04/07 02:16:42;;;;;;;10.88;1.10;;;24.70;68.00;;;;;;5041400;23;20291;-45
2022/04/07 02:18:44;;;;;;;1.27;0.70;;;24.60;67.90;;;;;;5050916;23;20107;-42
2022/04/07 02:20:46;;;;;;;0.73;0.60;;;24.60;67.80;;;;;;5050207;23;20436;-41
2022/04/07 02:22:48;;;;;;;1.13;0.63;;;24.60;67.70;;;;;;5046834;23;20029;-40
2022/04/07 02:24:51;;;;;;;2.03;0.65;;;24.60;67.80;;;;;;5024867;23;20040;-41
2022/04/07 02:26:53;;;;;;;1.17;0.50;;;24.50;67.70;;;;;;5053354;23;20030;-41
2022/04/07 02:28:55;;;;;;;1.88;0.60;;;24.50;67.80;;;;;;5041966;23;20268;-43
2022/04/07 02:30:57;;;;;;;0.85;0.50;;;24.50;67.70;;;;;;5041763;23;20029;-40
2022/04/07 02:32:59;;;;;;;1.23;0.70;;;24.50;67.80;;;;;;5058470;23;20032;-41
2022/04/07 02:35:02;;;;;;;1.83;0.65;;;24.40;67.70;;;;;;5057463;23;20797;-43
2022/04/07 02:37:04;;;;;;;3.10;0.98;;;24.40;67.70;;;;;;5057813;23;20214;-45
2022/04/07 02:39:07;;;;;;;1.02;0.68;;;24.40;67.80;;;;;;5033054;23;20046;-41
2022/04/07 02:41:09;;;;;;;1.00;0.57;;;24.40;67.80;;;;;;5058892;23;20068;-39
2022/04/07 02:43:11;;;;;;;2.33;0.65;;;24.30;68.60;;;;;;5054412;23;20045;-41
2022/04/07 02:45:14;;;;;;;2.63;0.50;;;24.30;68.10;;;;;;5047731;23;20408;-39
2022/04/07 02:47:17;;;;;;;2.00;0.93;;;24.30;68.40;;;;;;5044952;23;20051;-42
2022/04/07 02:49:28;;;;;;;3.65;0.65;;;24.30;68.40;;;;;;5053766;23;20021;-41
2022/04/07 02:51:33;;;;;;;1.83;0.82;;;24.30;68.50;;;;;;5053567;23;20022;-42
2022/04/07 02:53:36;;;;;;;3.10;1.08;;;24.30;68.60;;;;;;5033032;23;20032;-40
2022/04/07 02:55:38;;;;;;;2.65;1.10;;;24.20;68.50;;;;;;5038505;23;20403;-40
2022/04/07 02:57:41;;;;;;;1.88;0.65;;;24.20;68.70;;;;;;5038990;23;20026;-39
2022/04/07 02:59:43;;;;;;;;;;;24.20;68.70;;;;;;5038432;23;20037;-41
2022/04/07 03:01:45;;;;;;;1.52;0.63;;;24.20;68.70;;;;;;5035883;23;19927;-47
2022/04/07 03:03:48;;;;;;;1.10;0.50;;;24.20;68.80;;;;;;5037495;23;20084;-41
2022/04/07 03:05:50;;;;;;;;;;;24.20;68.90;;;;;;5035684;23;20275;-43
2022/04/07 03:07:52;;;;;;;0.70;0.60;;;24.10;68.80;;;;;;5033235;23;20641;-41
2022/04/07 03:09:54;;;;;;;2.97;0.75;;;24.10;69.00;;;;;;5037417;23;20026;-43
2022/04/07 03:11:56;;;;;;;1.92;0.73;;;24.10;69.00;;;;;;5039567;23;21070;-39
2022/04/07 03:13:58;;;;;;;1.83;0.98;;;24.10;69.10;;;;;;5033305;23;20032;-40
2022/04/07 03:16:01;;;;;;;2.47;0.82;;;24.10;69.10;;;;;;5033800;23;21000;-43
2022/04/07 03:18:03;;;;;;;2.90;0.85;;;24.10;69.20;;;;;;5040399;23;20033;-42
2022/04/07 03:20:05;;;;;;;1.98;0.52;;;24.00;69.00;;;;;;5005793;23;20036;-42
2022/04/07 03:22:08;;;;;;;3.70;0.57;;;24.00;69.00;;;;;;5033248;23;20028;-42
2022/04/07 03:24:10;;;;;;;1.63;0.70;;;24.00;69.00;;;;;;5037946;23;20100;-42
2022/04/07 03:26:12;;;;;;;1.75;0.85;;;24.00;69.00;;;;;;5038755;23;21067;-43
2022/04/07 03:28:14;;;;;;;1.88;0.70;;;24.00;69.00;;;;;;5010490;23;20038;-42
2022/04/07 03:30:17;;;;;;;6.22;1.02;;;24.00;69.00;;;;;;5033976;23;20029;-41
2022/04/07 03:32:19;;;;;;;3.08;0.90;;;24.00;69.20;;;;;;5041280;23;20029;-44
2022/04/07 03:34:21;;;;;;;3.50;1.15;;;24.00;69.30;;;;;;5005720;23;20045;-43
2022/04/07 03:36:23;;;;;;;2.55;0.65;;;24.00;69.30;;;;;;5034712;23;20040;-43
2022/04/07 03:38:25;;;;;;;0.93;0.70;;;23.90;69.20;;;;;;5036901;23;20044;-45
2022/04/07 03:40:27;;;;;;;3.10;0.83;;;23.90;69.20;;;;;;5012280;23;20041;-42
2022/04/07 03:42:29;;;;;;;2.60;0.95;;;23.90;69.30;;;;;;5007576;23;20097;-42
2022/04/07 03:44:31;;;;;;;5.50;1.45;;;23.90;69.40;;;;;;5035477;23;20088;-42
2022/04/07 03:46:34;;;;;;;3.40;0.60;;;23.90;69.70;;;;;;5041291;23;20030;-41
2022/04/07 03:48:37;;;;;;;4.88;0.90;;;23.90;69.60;;;;;;5037039;23;20029;-42
2022/04/07 03:50:40;;;;;;;2.13;1.00;;;23.90;69.80;;;;;;5038295;23;20025;-42
2022/04/07 03:52:43;;;;;;;2.90;0.80;;;23.80;69.80;;;;;;5039030;23;20029;-40
2022/04/07 03:54:45;;;;;;;2.88;0.70;;;23.90;70.00;;;;;;5040305;23;20056;-40
2022/04/07 03:56:47;;;;;;;1.52;0.70;;;23.90;70.00;;;;;;5032093;23;20432;-41
2022/04/07 03:58:49;;;;;;;4.65;0.90;;;23.80;69.90;;;;;;5034583;23;20030;-41
2022/04/07 04:00:52;;;;;;;4.97;0.80;;;23.80;70.20;;;;;;5042660;23;20029;-44
2022/04/07 04:02:54;;;;;;;;;;;23.80;69.70;;;;;;5035172;23;20597;-41
2022/04/07 04:04:56;;;;;;;2.05;0.80;;;23.80;69.60;;;;;;5035146;23;19924;-47
2022/04/07 04:06:58;;;;;;;8.07;1.50;;;23.80;69.70;;;;;;5012654;23;20108;-41
2022/04/07 04:09:00;;;;;;;4.43;1.20;;;23.80;70.00;;;;;;5039986;23;20034;-39
2022/04/07 04:11:03;;;;;;;5.13;0.80;;;23.80;70.10;;;;;;5034679;23;20056;-42
2022/04/07 04:13:05;;;;;;;6.67;1.03;;;23.80;70.00;;;;;;5011742;23;20823;-38
2022/04/07 04:15:08;;;;;;;3.53;0.98;;;23.70;70.00;;;;;;5017325;23;20264;-39
2022/04/07 04:17:10;;;;;;;1.80;0.90;;;23.80;70.00;;;;;;5010229;23;20129;-39
2022/04/07 04:19:12;;;;;;;10.05;1.30;;;23.70;70.30;;;;;;5035849;23;20035;-45
2022/04/07 04:21:14;;;;;;;4.63;1.10;;;23.70;70.30;;;;;;5040362;23;20060;-40
2022/04/07 04:23:16;;;;;;;5.55;1.33;;;23.70;70.40;;;;;;5040527;23;20624;-40
2022/04/07 04:25:19;;;;;;;7.00;1.00;;;23.70;70.40;;;;;;5037365;23;20025;-39
2022/04/07 04:27:21;;;;;;;4.43;1.33;;;23.70;70.40;;;;;;5032308;23;20025;-40
2022/04/07 04:29:23;;;;;;;5.47;0.90;;;23.70;70.50;;;;;;5042389;23;20029;-41
2022/04/07 04:31:25;;;;;;;8.25;1.25;;;23.70;70.60;;;;;;5035696;23;20665;-40
2022/04/07 04:33:27;;;;;;;12.25;1.50;;;23.70;70.40;;;;;;5034271;23;20549;-44
2022/04/07 04:35:29;;;;;;;4.45;1.08;;;23.70;70.30;;;;;;5040037;23;20184;-43
2022/04/07 04:37:32;;;;;;;4.35;0.88;;;23.60;70.20;;;;;;5011647;23;20037;-41
2022/04/07 04:39:34;;;;;;;2.67;1.00;;;23.60;70.20;;;;;;5035740;23;20255;-42
2022/04/07 04:41:36;;;;;;;2.75;0.93;;;23.60;70.10;;;;;;5038444;23;20119;-42
2022/04/07 04:43:38;;;;;;;7.10;1.05;;;23.60;70.20;;;;;;5041798;23;20112;-41
2022/04/07 04:45:40;;;;;;;4.63;1.27;;;23.60;70.10;;;;;;5035551;23;20391;-42
2022/04/07 04:47:43;;;;;;;4.43;1.10;;;23.60;70.10;;;;;;5035193;23;20036;-41
2022/04/07 04:49:45;;;;;;;2.55;0.85;;;23.60;70.30;;;;;;5014398;23;20120;-45
2022/04/07 04:51:47;;;;;;;3.07;1.03;;;23.60;70.30;;;;;;5033546;23;20140;-41
2022/04/07 04:53:49;;;;;;;3.88;1.10;;;23.50;70.30;;;;;;5007855;23;20112;-42
2022/04/07 04:55:52;;;;;;;3.90;0.85;;;23.60;70.40;;;;;;5039750;23;20068;-40
2022/04/07 04:57:54;;;;;;;4.93;0.80;;;23.50;70.40;;;;;;5041531;23;20029;-42
2022/04/07 04:59:56;;;;;;;3.58;0.90;;;23.50;70.90;;;;;;5038376;23;20366;-41
2022/04/07 05:01:58;;;;;;;11.50;1.52;;;23.50;70.90;;;;;;5030612;23;20061;-41
2022/04/07 05:04:00;;;;;;;8.55;1.08;;;23.50;71.00;;;;;;5041808;23;20029;-44
2022/04/07 05:06:03;;;;;;;3.35;1.00;;;23.50;71.20;;;;;;5038475;23;21112;-41
2022/04/07 05:08:06;;;;;;;4.57;1.00;;;23.50;71.20;;;;;;5039063;23;20033;-38
2022/04/07 05:10:09;;;;;;;4.47;1.25;;;23.50;71.10;;;;;;5044913;23;20121;-38
2022/04/07 05:12:11;;;;;;;2.53;0.80;;;23.50;71.10;;;;;;5040841;23;21116;-39
2022/04/07 05:14:13;;;;;;;2.25;0.90;;;23.50;71.10;;;;;;5038504;23;20030;-38
2022/04/07 05:16:15;;;;;;;2.00;0.77;;;23.50;71.00;;;;;;5039359;23;20029;-38
2022/04/07 05:18:17;;;;;;;2.65;0.70;;;23.50;71.00;;;;;;5046864;23;20036;-40
2022/04/07 05:20:21;;;;;;;7.38;1.27;;;23.50;71.00;;;;;;5039879;23;20080;-40
2022/04/07 05:22:23;;;;;;;2.58;1.00;;;23.50;71.00;;;;;;5041808;23;20022;-41
2022/04/07 05:24:25;;;;;;;8.35;1.10;;;23.50;71.00;;;;;;5044133;23;20841;-38
2022/04/07 05:26:27;;;;;;;3.95;1.15;;;23.50;71.00;;;;;;5045539;23;20622;-41
2022/04/07 05:28:29;;;;;;;5.22;1.33;;;23.50;71.00;;;;;;5042481;23;20864;-40
2022/04/07 05:30:31;;;;;;;3.13;1.20;;;23.50;71.10;;;;;;5043050;23;20136;-41
2022/04/07 05:32:37;;;;;;;7.28;1.33;;;23.50;71.10;;;;;;5046071;23;20080;-39
2022/04/07 05:34:39;;;;;;;3.20;1.05;;;23.50;71.10;;;;;;5042301;23;20052;-39
2022/04/07 05:36:42;;;;;;;3.83;1.00;;;23.50;71.10;;;;;;5040759;23;20105;-40
2022/04/07 05:38:44;;;;;;;4.35;1.52;;;23.50;71.10;;;;;;5047481;23;20025;-39
2022/04/07 05:40:46;;;;;;;1.95;0.77;;;23.50;71.10;;;;;;5044272;23;20033;-40
2022/04/07 05:42:48;;;;;;;2.75;1.20;;;23.50;71.10;;;;;;5043638;23;20029;-44
2022/04/07 05:44:50;;;;;;;2.40;0.88;;;23.50;71.20;;;;;;5045370;23;20037;-39
2022/04/07 05:46:52;;;;;;;4.53;1.00;;;23.50;71.20;;;;;;5050318;23;20176;-39
2022/04/07 05:48:54;;;;;;;2.20;1.10;;;23.50;71.20;;;;;;5042423;23;20041;-40
2022/04/07 05:50:56;;;;;;;5.57;1.35;;;23.50;71.30;;;;;;5042310;23;20407;-42
2022/04/07 05:52:59;;;;;;;3.70;1.20;;;23.50;71.30;;;;;;5048563;23;20124;-40
2022/04/07 05:55:01;;;;;;;3.22;1.05;;;23.50;71.30;;;;;;5046675;23;20025;-40
2022/04/07 05:57:03;;;;;;;2.08;1.05;;;23.50;71.30;;;;;;5041747;23;20616;-41
2022/04/07 05:59:05;;;;;;;2.13;0.93;;;23.50;71.40;;;;;;5046577;23;20064;-41
2022/04/07 06:01:07;;;;;;;3.05;1.10;;;23.50;71.50;;;;;;5050927;23;20140;-43
2022/04/07 06:03:09;;;;;;;6.88;1.50;;;23.50;71.30;;;;;;5043252;23;20103;-40
2022/04/07 06:05:16;;;;;;;2.92;1.08;;;23.50;71.40;;;;;;5041987;23;20087;-42
2022/04/07 06:07:18;;;;;;;3.75;1.20;;;23.50;71.40;;;;;;5042666;23;20029;-42
2022/04/07 06:09:20;;;;;;;2.92;1.15;;;23.40;71.50;;;;;;5048073;23;20438;-43
2022/04/07 06:11:22;;;;;;;5.40;1.77;;;23.40;72.10;;;;;;5040078;23;20821;-42
2022/04/07 06:13:24;;;;;;;2.88;1.20;;;23.40;71.30;;;;;;5042070;23;20111;-44
2022/04/07 06:15:28;;;;;;;4.68;1.40;;;23.40;71.30;;;;;;5022758;23;20029;-42
2022/04/07 06:17:34;;;;;;;2.55;1.05;;;23.40;71.40;;;;;;5043765;23;20025;-42
2022/04/07 06:19:36;;;;;;;3.60;1.00;;;23.40;71.50;;;;;;5040220;23;20029;-45
2022/04/07 06:21:38;;;;;;;3.40;1.10;;;23.40;71.50;;;;;;5044902;23;20829;-43
2022/04/07 06:23:41;;;;;;;2.47;1.00;;;23.40;72.10;;;;;;5048804;23;20029;-40
2022/04/07 06:25:43;;;;;;;2.83;0.93;;;23.40;71.60;;;;;;5041230;23;20789;-41
2022/04/07 06:27:47;;;;;;;4.80;1.17;;;23.40;71.50;;;;;;5040859;23;20057;-42
2022/04/07 06:29:49;;;;;;;5.10;0.95;;;23.30;71.70;;;;;;5045244;23;20064;-41
2022/04/07 06:31:51;;;;;;;4.30;1.27;;;23.40;71.70;;;;;;5050551;23;20048;-41
2022/04/07 06:33:53;;;;;;;4.93;1.63;;;23.30;71.50;;;;;;5046012;23;20056;-47
2022/04/07 06:35:55;;;;;;;8.05;1.83;;;23.30;71.50;;;;;;5049340;23;20104;-43
2022/04/07 06:37:58;;;;;;;4.25;1.30;;;23.30;71.50;;;;;;5056323;23;20022;-41
2022/04/07 06:40:04;;;;;;;4.55;1.02;;;23.40;71.50;;;;;;5023445;23;20030;-44
2022/04/07 06:42:07;;;;;;;2.28;1.10;;;23.30;71.50;;;;;;5050754;23;20486;-46
2022/04/07 06:44:09;;;;;;;3.67;1.13;;;23.30;71.50;;;;;;5052667;23;20137;-43
2022/04/07 06:46:12;;;;;;;7.85;1.20;;;23.30;71.60;;;;;;5055495;23;20052;-43
2022/04/07 06:48:14;;;;;;;2.65;1.17;;;23.30;71.50;;;;;;5045846;23;20029;-42
2022/04/07 06:50:18;;;;;;;3.15;1.17;;;23.30;71.60;;;;;;5056754;23;20487;-43
2022/04/07 06:52:20;;;;;;;5.20;0.85;;;23.30;71.60;;;;;;5061933;23;20041;-42
2022/04/07 06:54:22;;;;;;;3.60;0.85;;;23.30;71.60;;;;;;5031635;23;20048;-41
2022/04/07 06:56:25;;;;;;;3.00;1.13;;;23.30;71.50;;;;;;5033405;23;20029;-39
2022/04/07 06:58:27;;;;;;;3.08;1.27;;;23.30;71.50;;;;;;5059291;23;20536;-42
2022/04/07 07:00:31;;;;;;;4.97;1.13;;;23.30;71.40;;;;;;5049723;23;20564;-45
2022/04/07 07:02:34;;;;;;;2.65;1.08;;;23.30;71.30;;;;;;5055982;23;20021;-41
2022/04/07 07:04:44;;;;;;;4.55;1.33;;;23.30;71.10;;;;;;5066017;23;20021;-44
2022/04/07 07:06:58;;;;;;;4.38;1.25;;;23.20;71.40;;;;;;5031253;23;20022;-41
2022/04/07 07:09:01;;;;;;;4.25;1.42;;;23.20;71.40;;;;;;5054353;23;20030;-41
2022/04/07 07:11:03;;;;;;;2.45;0.70;;;23.20;71.50;;;;;;5038132;23;20033;-41
2022/04/07 07:13:06;;;;;;;3.30;1.38;;;23.20;71.60;;;;;;5033699;23;20255;-42
2022/04/07 07:15:08;;;;;;;2.42;0.60;;;23.20;71.60;;;;;;5032768;23;20030;-44
2022/04/07 07:17:10;;;;;;;4.63;1.40;;;23.20;71.70;;;;;;5036404;23;20026;-41
2022/04/07 07:19:15;;;;;;;4.55;1.35;;;23.20;71.70;;;;;;5040984;23;20510;-41
2022/04/07 07:21:18;;;;;;;3.08;0.90;;;23.20;71.80;;;;;;5035918;23;20076;-44
2022/04/07 07:23:20;;;;;;;3.13;0.98;;;23.20;71.80;;;;;;5033843;23;20294;-43
2022/04/07 07:25:22;;;;;;;4.38;1.10;;;23.20;71.80;;;;;;5008400;23;20451;-41
2022/04/07 07:27:24;;;;;;;4.00;0.98;;;23.20;71.90;;;;;;5039122;23;20060;-43
2022/04/07 07:29:26;;;;;;;2.38;0.85;;;23.20;71.80;;;;;;5032440;23;20973;-42
2022/04/07 07:31:30;;;;;;;1.95;1.10;;;23.20;71.90;;;;;;5007970;23;20077;-42
2022/04/07 07:33:32;;;;;;;1.33;0.80;;;23.20;71.80;;;;;;5039134;23;20029;-40
2022/04/07 07:35:34;;;;;;;3.42;1.20;;;23.20;71.90;;;;;;5035878;23;20029;-43
2022/04/07 07:37:46;;;;;;;2.75;1.35;;;23.20;72.00;;;;;;5034718;23;20112;-40
2022/04/07 07:39:50;;;;;;;3.75;1.88;;;23.20;72.00;;;;;;5033787;23;20030;-41
2022/04/07 07:41:52;;;;;;;3.97;1.55;;;23.20;72.10;;;;;;5036289;23;20818;-42
2022/04/07 07:43:55;;;;;;;5.97;1.80;;;23.20;72.20;;;;;;5041009;23;20029;-41
2022/04/07 07:45:57;;;;;;;3.80;1.58;;;23.20;72.30;;;;;;5032843;23;21042;-47
2022/04/07 07:47:59;;;;;;;6.45;2.53;;;23.20;72.30;;;;;;5040983;23;20020;-41
2022/04/07 07:50:03;;;;;;;3.97;2.07;;;23.20;72.60;;;;;;5042340;23;20359;-43
2022/04/07 07:52:06;;;;;;;4.55;1.70;;;23.20;72.50;;;;;;5044480;23;20133;-45
2022/04/07 07:54:08;;;;;;;6.63;1.88;;;23.20;72.60;;;;;;5042641;23;20033;-44
2022/04/07 07:56:10;;;;;;;5.25;2.20;;;23.20;72.50;;;;;;5041313;23;20510;-43
2022/04/07 07:58:13;;;;;;;5.45;1.58;;;23.20;72.30;;;;;;5021505;23;20026;-44
2022/04/07 08:00:17;;;;;;;8.07;1.67;;;23.20;72.20;;;;;;5044907;23;20030;-44
2022/04/07 08:02:19;;;;;;;3.25;1.58;;;23.20;72.10;;;;;;5041154;23;20640;-45
2022/04/07 08:04:21;;;;;;;5.23;1.80;;;23.20;72.00;;;;;;5044844;23;20421;-45
2022/04/07 08:06:23;;;;;;;3.40;1.48;;;23.20;71.90;;;;;;5049954;23;20826;-42
2022/04/07 08:08:25;;;;;;;3.13;1.55;;;23.10;71.80;;;;;;5045778;23;21044;-42
2022/04/07 08:10:27;;;;;;;3.00;1.42;;;23.10;71.70;;;;;;5015564;23;20955;-46
2022/04/07 08:12:30;;;;;;;3.72;1.55;;;23.10;71.70;;;;;;5041960;23;20037;-46
2022/04/07 08:14:32;;;;;;;3.30;1.40;;;23.00;71.60;;;;;;5042537;23;20025;-43
2022/04/07 08:16:37;;;;;;;3.60;1.40;;;23.00;71.50;;;;;;5018406;23;20034;-44
2022/04/07 08:18:40;;;;;;;4.88;1.45;;;23.00;71.60;;;;;;5042944;23;20153;-42
2022/04/07 08:20:42;;;;;;;4.47;1.70;;;23.00;71.90;;;;;;5048470;23;20029;-46
2022/04/07 08:22:44;;;;;;;3.37;1.57;;;23.00;72.20;;;;;;5046355;23;20698;-44
2022/04/07 08:24:46;;;;;;;5.40;1.75;;;23.00;72.20;;;;;;5043988;23;20030;-50
2022/04/07 08:26:49;;;;;;;3.78;1.55;;;23.00;72.40;;;;;;5045003;23;20140;-46
2022/04/07 08:28:51;;;;;;;4.63;1.77;;;23.00;72.50;;;;;;5050063;23;20099;-42
2022/04/07 08:30:53;;;;;;;4.07;1.52;;;23.00;72.50;;;;;;5041356;23;20339;-47
2022/04/07 08:32:55;;;;;;;3.65;1.65;;;23.00;72.50;;;;;;5017350;23;20045;-44
2022/04/07 08:34:58;;;;;;;3.03;1.30;;;23.00;72.60;;;;;;5050132;23;20052;-42
2022/04/07 08:37:00;;;;;;;3.17;1.25;;;23.00;72.60;;;;;;5043765;23;20107;-46
2022/04/07 08:39:02;;;;;;;3.92;1.55;;;23.00;72.70;;;;;;5038928;23;20030;-44
2022/04/07 08:41:09;;;;;;;3.23;1.70;;;23.00;72.70;;;;;;5046174;23;20194;-45
2022/04/07 08:43:12;;;;;;;4.72;1.90;;;23.00;73.30;;;;;;5019752;23;20121;-43
2022/04/07 08:45:14;;;;;;;;;;;23.00;72.70;;;;;;5044749;23;20029;-52
2022/04/07 08:47:20;;;;;;;4.50;1.60;;;23.00;72.70;;;;;;5012807;23;20692;-44
2022/04/07 08:49:24;;;;;;;3.15;1.30;;;23.00;72.70;;;;;;5039817;23;20029;-43
2022/04/07 08:51:28;;;;;;;4.15;1.35;;;23.00;72.70;;;;;;5045815;23;20025;-42
2022/04/07 08:53:30;;;;;;;3.13;1.30;;;23.00;72.70;;;;;;5042615;23;20960;-41
2022/04/07 08:55:33;;;;;;;3.97;1.70;;;23.00;72.70;;;;;;5039942;23;20123;-42
2022/04/07 08:57:37;;;;;;;;;;;23.00;72.60;;;;;;5042409;23;20037;-43
2022/04/07 08:59:39;;;;;;;3.58;1.40;;;23.00;72.60;;;;;;5045030;23;19916;-43
2022/04/07 09:01:41;;;;;;;5.38;1.52;;;23.00;72.60;;;;;;5035230;23;20026;-43
2022/04/07 09:03:43;;;;;;;3.97;1.55;;;23.00;72.50;;;;;;5037159;23;20482;-45
2022/04/07 09:05:59;;;;;;;4.07;1.63;;;23.00;72.60;;;;;;5045427;23;20040;-43
2022/04/07 09:08:01;;;;;;;4.32;1.50;;;23.00;72.50;;;;;;5041102;23;20030;-43
2022/04/07 09:10:05;;;;;;;5.00;1.20;;;23.00;72.60;;;;;;5046680;23;20022;-41
2022/04/07 09:12:08;;;;;;;2.75;1.30;;;23.00;72.60;;;;;;5041172;23;20025;-45
2022/04/07 09:14:11;;;;;;;3.72;1.30;;;23.10;72.50;;;;;;5040085;23;20109;-43
2022/04/07 09:16:17;;;;;;;2.67;1.30;;;23.10;72.50;;;;;;5042552;23;20029;-45
2022/04/07 09:18:25;;;;;;;4.00;1.48;;;23.10;72.50;;;;;;5044759;23;20026;-42
2022/04/07 09:20:27;;;;;;;3.17;1.20;;;23.10;72.50;;;;;;5045549;23;20458;-42
2022/04/07 09:22:31;;;;;;;3.95;1.02;;;23.10;72.50;;;;;;5036639;23;20493;-45
2022/04/07 09:24:37;;;;;;;3.20;0.93;;;23.20;72.40;;;;;;5040713;23;20080;-45
2022/04/07 09:26:44;;;;;;;3.78;1.23;;;23.20;71.80;;;;;;5014787;23;20064;-43
2022/04/07 09:28:47;;;;;;;3.03;1.30;;;23.20;72.40;;;;;;5045813;23;20454;-42
2022/04/07 09:30:52;;;;;;;3.53;1.20;;;23.20;72.40;;;;;;5041146;23;20546;-44
2022/04/07 09:32:54;;;;;;;4.15;1.52;;;23.20;72.90;;;;;;5040168;23;20072;-44
2022/04/07 09:35:01;;;;;;;4.03;1.05;;;23.20;72.30;;;;;;5039417;23;20395;-42
2022/04/07 09:37:06;;;;;;;1.55;0.90;;;23.20;72.30;;;;;;5044658;23;20825;-44
2022/04/07 09:39:09;;;;;;;1.65;0.80;;;23.20;72.20;;;;;;5050757;23;20032;-43
2022/04/07 09:41:12;;;;;;;3.40;1.15;;;23.20;72.20;;;;;;5044362;23;20033;-44
2022/04/07 09:43:15;;;;;;;3.75;1.00;;;23.20;72.20;;;;;;5043803;23;20026;-45
2022/04/07 09:45:17;;;;;;;3.40;1.07;;;23.20;72.10;;;;;;5048608;23;20506;-43
2022/04/07 09:47:20;;;;;;;3.58;1.27;;;23.20;72.10;;;;;;5046329;23;20842;-42
2022/04/07 09:49:22;;;;;;;6.57;1.30;;;23.30;72.20;;;;;;5015652;23;20068;-48
2022/04/07 09:51:27;;;;;;;5.53;1.60;;;23.30;72.00;;;;;;5043367;23;20060;-47
2022/04/07 09:53:40;;;;;;;2.90;1.27;;;23.30;72.00;;;;;;5046571;23;20045;-43
2022/04/07 09:55:44;;;;;;;21.30;1.90;;;23.20;71.90;;;;;;5047698;23;20037;-41
2022/04/07 09:57:46;;;;;;;29.00;2.28;;;23.20;71.80;;;;;;5018212;23;20185;-46
2022/04/07 09:59:50;;;;;;;13.95;2.30;;;23.20;71.60;;;;;;5041727;23;20037;-45
2022/04/07 10:01:51;;;;;;;;;;;23.20;71.20;;;;;;5042414;23;20029;-44
2022/04/07 10:03:53;;;;;;;39.05;4.68;;;23.20;71.20;;;;;;5047023;23;20251;-48
2022/04/07 10:05:57;;;;;;;27.77;4.20;;;23.20;71.20;;;;;;5041859;23;20116;-44
2022/04/07 10:07:59;;;;;;;;;;;23.10;71.30;;;;;;5035851;23;20029;-42
2022/04/07 10:10:02;;;;;;;21.45;4.13;;;23.10;71.40;;;;;;5039103;23;20260;-42
2022/04/07 10:12:05;;;;;;;28.13;3.33;;;23.10;71.50;;;;;;5041837;23;20035;-42
2022/04/07 10:14:08;;;;;;;17.88;3.13;;;23.10;71.60;;;;;;5036807;23;20470;-43
2022/04/07 10:16:10;;;;;;;;;;;23.10;71.70;;;;;;5037889;23;20060;-42
2022/04/07 10:18:29;;;;;;;12.15;2.42;;;23.10;71.70;;;;;;5041105;23;19928;-49
2022/04/07 10:20:35;;;;;;;12.63;2.78;;;23.10;71.80;;;;;;5037480;23;20029;-45
2022/04/07 10:23:09;;;;;;;9.57;2.28;;;23.10;71.80;;;;;;5042683;23;20033;-42
2022/04/07 10:25:12;;;;;;;7.60;2.35;;;23.10;71.80;;;;;;5039698;23;21131;-42
2022/04/07 10:27:19;;;;;;;9.82;1.92;;;23.10;71.90;;;;;;5039815;23;20037;-41
2022/04/07 10:29:23;;;;;;;3.90;1.88;;;23.20;71.70;;;;;;5038121;23;20030;-43
2022/04/07 10:31:26;;;;;;;4.22;1.55;;;23.10;72.00;;;;;;5044203;23;20539;-40
2022/04/07 10:33:50;;;;;;;7.90;1.95;;;23.20;72.00;;;;;;5048430;23;20444;-43
2022/04/07 10:35:52;;;;;;;5.40;1.67;;;23.20;71.90;;;;;;5041234;23;20045;-40
2022/04/07 10:37:55;;;;;;;7.17;1.67;;;23.20;71.80;;;;;;5044868;23;20071;-41
2022/04/07 10:40:17;;;;;;;4.40;1.10;;;23.20;71.80;;;;;;5036034;23;20030;-41
2022/04/07 10:42:57;;;;;;;3.78;1.33;;;23.20;71.70;;;;;;5044611;23;20033;-41